KGUS

Grissom ARB Airport

Peru, Indiana, USA
TAF KGUS 261100Z 2611/2717 VRB06KT 9999 SKC QNH2975INS TX17/2620Z TN00/2611Z
Issued Valid From Valid To
Apr-26 @ 11:00 UTC
(2 hours ago)
Apr-26 @ 11:00 UTC
(2 hours ago)
Apr-27 @ 17:00 UTC
(-1 days ago)
Apr-26 @ 11:00 to Apr-27 @ 17:00
TAF KGUS 261100Z 2611/2717 VRB06KT 9999 SKC QNH2975INS TX17/2620Z TN00/2611Z
Wind Visibility Clouds Readings
Variable at 6 knots Greater than 6 miles
  • Clear skies
Altimeter 29.76" Hg
Pressure 1008 hPa
TAF KGUS 261100Z 2611/2717 VRB06KT 9999 SKC QNH2975INS TX17/2620Z TN00/2611Z
Issued Apr-26 @ 11:00 UTC
(2 hours ago)
Valid From Apr-26 @ 11:00 UTC
(2 hours ago)
Valid To Apr-27 @ 17:00 UTC
(-1 days ago)
Apr-26 @ 11:00 - Apr-27 @ 17:00
Wind Visibility
Variable at 6 knots Greater than 6 miles
Clouds
  • Clear skies